sensor_id;sensor_type;location;lat;lon;timestamp;pressure;altitude;pressure_sealevel;temperature
67353;BMP180;54238;52.278;21.056;2023-08-01T00:01:07;99661.00;;;20.70
67353;BMP180;54238;52.278;21.056;2023-08-01T00:03:39;99652.20;;;20.70
67353;BMP180;54238;52.278;21.056;2023-08-01T00:06:06;99653.00;;;20.70
67353;BMP180;54238;52.278;21.056;2023-08-01T00:08:36;99653.20;;;20.60
67353;BMP180;54238;52.278;21.056;2023-08-01T00:11:03;99652.60;;;20.60
67353;BMP180;54238;52.278;21.056;2023-08-01T00:13:34;99648.20;;;20.56
67353;BMP180;54238;52.278;21.056;2023-08-01T00:16:01;99650.40;;;20.50
67353;BMP180;54238;52.278;21.056;2023-08-01T00:18:31;99648.20;;;20.50
67353;BMP180;54238;52.278;21.056;2023-08-01T00:20:58;99649.40;;;20.50
67353;BMP180;54238;52.278;21.056;2023-08-01T00:23:25;99646.80;;;20.50
67353;BMP180;54238;52.278;21.056;2023-08-01T00:25:55;99645.60;;;20.50
67353;BMP180;54238;52.278;21.056;2023-08-01T00:28:24;99646.60;;;20.50
67353;BMP180;54238;52.278;21.056;2023-08-01T00:31:07;99640.20;;;20.50
67353;BMP180;54238;52.278;21.056;2023-08-01T00:33:37;99639.40;;;20.50
67353;BMP180;54238;52.278;21.056;2023-08-01T00:36:09;99640.40;;;20.50
67353;BMP180;54238;52.278;21.056;2023-08-01T00:38:38;99637.20;;;20.50
67353;BMP180;54238;52.278;21.056;2023-08-01T00:41:05;99632.40;;;20.50
67353;BMP180;54238;52.278;21.056;2023-08-01T00:43:32;99633.20;;;20.50
67353;BMP180;54238;52.278;21.056;2023-08-01T00:46:04;99627.00;;;20.48
67353;BMP180;54238;52.278;21.056;2023-08-01T00:48:35;99624.80;;;20.40
67353;BMP180;54238;52.278;21.056;2023-08-01T00:51:07;99621.80;;;20.40
67353;BMP180;54238;52.278;21.056;2023-08-01T00:53:35;99616.00;;;20.40
67353;BMP180;54238;52.278;21.056;2023-08-01T00:56:03;99615.80;;;20.30
67353;BMP180;54238;52.278;21.056;2023-08-01T00:58:33;99607.00;;;20.30
67353;BMP180;54238;52.278;21.056;2023-08-01T01:01:04;99605.80;;;20.30
67353;BMP180;54238;52.278;21.056;2023-08-01T01:03:31;99600.40;;;20.30
67353;BMP180;54238;52.278;21.056;2023-08-01T01:06:39;99596.60;;;20.30
67353;BMP180;54238;52.278;21.056;2023-08-01T01:09:17;99593.20;;;20.30
67353;BMP180;54238;52.278;21.056;2023-08-01T01:11:51;99592.80;;;20.30
67353;BMP180;54238;52.278;21.056;2023-08-01T01:14:20;99587.40;;;20.20
67353;BMP180;54238;52.278;21.056;2023-08-01T01:16:55;99580.80;;;20.20
67353;BMP180;54238;52.278;21.056;2023-08-01T01:19:25;99584.40;;;20.20
67353;BMP180;54238;52.278;21.056;2023-08-01T01:21:55;99582.60;;;20.20
67353;BMP180;54238;52.278;21.056;2023-08-01T01:24:31;99577.80;;;20.20
67353;BMP180;54238;52.278;21.056;2023-08-01T01:27:00;99577.00;;;20.20
67353;BMP180;54238;52.278;21.056;2023-08-01T01:29:32;99573.20;;;20.20
67353;BMP180;54238;52.278;21.056;2023-08-01T01:32:03;99574.60;;;20.20
67353;BMP180;54238;52.278;21.056;2023-08-01T01:34:31;99566.80;;;20.20
67353;BMP180;54238;52.278;21.056;2023-08-01T01:37:03;99563.40;;;20.20
67353;BMP180;54238;52.278;21.056;2023-08-01T01:39:32;99550.20;;;20.10
67353;BMP180;54238;52.278;21.056;2023-08-01T01:42:05;99551.60;;;20.10
67353;BMP180;54238;52.278;21.056;2023-08-01T01:44:34;99546.40;;;20.10
67353;BMP180;54238;52.278;21.056;2023-08-01T01:47:04;99548.00;;;20.10
67353;BMP180;54238;52.278;21.056;2023-08-01T01:49:31;99540.80;;;20.00
67353;BMP180;54238;52.278;21.056;2023-08-01T01:52:06;99537.80;;;20.00
67353;BMP180;54238;52.278;21.056;2023-08-01T01:54:36;99541.20;;;20.00
67353;BMP180;54238;52.278;21.056;2023-08-01T01:57:08;99539.20;;;19.96
67353;BMP180;54238;52.278;21.056;2023-08-01T01:59:38;99536.60;;;19.90
67353;BMP180;54238;52.278;21.056;2023-08-01T02:02:05;99529.80;;;19.90
67353;BMP180;54238;52.278;21.056;2023-08-01T02:04:34;99531.00;;;19.90
67353;BMP180;54238;52.278;21.056;2023-08-01T02:07:03;99523.80;;;19.90
67353;BMP180;54238;52.278;21.056;2023-08-01T02:09:32;99521.60;;;19.80
67353;BMP180;54238;52.278;21.056;2023-08-01T02:12:00;99522.60;;;19.80
67353;BMP180;54238;52.278;21.056;2023-08-01T02:14:36;99518.20;;;19.72
67353;BMP180;54238;52.278;21.056;2023-08-01T02:17:06;99513.20;;;19.70
67353;BMP180;54238;52.278;21.056;2023-08-01T02:19:36;99514.60;;;19.60
67353;BMP180;54238;52.278;21.056;2023-08-01T02:22:08;99519.20;;;19.60
67353;BMP180;54238;52.278;21.056;2023-08-01T02:24:40;99513.40;;;19.50
67353;BMP180;54238;52.278;21.056;2023-08-01T02:27:09;99507.60;;;19.50
67353;BMP180;54238;52.278;21.056;2023-08-01T02:29:37;99499.80;;;19.42
67353;BMP180;54238;52.278;21.056;2023-08-01T02:32:09;99499.80;;;19.40
67353;BMP180;54238;52.278;21.056;2023-08-01T02:34:38;99492.80;;;19.40
67353;BMP180;54238;52.278;21.056;2023-08-01T02:37:05;99483.40;;;19.30
67353;BMP180;54238;52.278;21.056;2023-08-01T02:39:32;99478.40;;;19.30
67353;BMP180;54238;52.278;21.056;2023-08-01T02:42:03;99477.80;;;19.20
67353;BMP180;54238;52.278;21.056;2023-08-01T02:44:30;99473.20;;;19.20
67353;BMP180;54238;52.278;21.056;2023-08-01T02:46:58;99471.00;;;19.20
67353;BMP180;54238;52.278;21.056;2023-08-01T02:49:27;99469.40;;;19.12
67353;BMP180;54238;52.278;21.056;2023-08-01T02:51:56;99467.00;;;19.10
67353;BMP180;54238;52.278;21.056;2023-08-01T02:54:23;99461.00;;;19.10
67353;BMP180;54238;52.278;21.056;2023-08-01T02:56:50;99460.80;;;19.10
67353;BMP180;54238;52.278;21.056;2023-08-01T02:59:20;99456.00;;;19.06
67353;BMP180;54238;52.278;21.056;2023-08-01T03:01:49;99454.20;;;19.00
67353;BMP180;54238;52.278;21.056;2023-08-01T03:04:16;99449.00;;;19.00
67353;BMP180;54238;52.278;21.056;2023-08-01T03:06:43;99448.40;;;19.00
67353;BMP180;54238;52.278;21.056;2023-08-01T03:09:13;99450.80;;;19.00
67353;BMP180;54238;52.278;21.056;2023-08-01T03:11:49;99448.60;;;19.00
67353;BMP180;54238;52.278;21.056;2023-08-01T03:14:19;99446.00;;;19.00
67353;BMP180;54238;52.278;21.056;2023-08-01T03:16:51;99443.40;;;19.00
67353;BMP180;54238;52.278;21.056;2023-08-01T03:19:22;99436.40;;;19.00
67353;BMP180;54238;52.278;21.056;2023-08-01T03:21:57;99438.20;;;19.00
67353;BMP180;54238;52.278;21.056;2023-08-01T03:24:29;99437.40;;;19.00
67353;BMP180;54238;52.278;21.056;2023-08-01T03:26:59;99436.00;;;19.00
67353;BMP180;54238;52.278;21.056;2023-08-01T03:29:26;99429.60;;;19.00
67353;BMP180;54238;52.278;21.056;2023-08-01T03:31:53;99428.40;;;19.00
67353;BMP180;54238;52.278;21.056;2023-08-01T03:34:23;99422.80;;;19.00
67353;BMP180;54238;52.278;21.056;2023-08-01T03:36:56;99429.20;;;19.00
67353;BMP180;54238;52.278;21.056;2023-08-01T03:39:25;99428.00;;;19.00
67353;BMP180;54238;52.278;21.056;2023-08-01T03:41:55;99426.80;;;19.00
67353;BMP180;54238;52.278;21.056;2023-08-01T03:44:22;99424.20;;;19.00
67353;BMP180;54238;52.278;21.056;2023-08-01T03:46:50;99418.00;;;19.00
67353;BMP180;54238;52.278;21.056;2023-08-01T03:49:23;99413.20;;;19.00
67353;BMP180;54238;52.278;21.056;2023-08-01T03:51:52;99413.80;;;19.00
67353;BMP180;54238;52.278;21.056;2023-08-01T03:54:27;99411.20;;;19.00
67353;BMP180;54238;52.278;21.056;2023-08-01T03:56:54;99410.80;;;19.08
67353;BMP180;54238;52.278;21.056;2023-08-01T03:59:25;99410.60;;;19.10
67353;BMP180;54238;52.278;21.056;2023-08-01T04:02:01;99408.40;;;19.10
67353;BMP180;54238;52.278;21.056;2023-08-01T04:04:30;99406.20;;;19.10
67353;BMP180;54238;52.278;21.056;2023-08-01T04:07:02;99403.40;;;19.10
67353;BMP180;54238;52.278;21.056;2023-08-01T04:09:29;99401.40;;;19.12
67353;BMP180;54238;52.278;21.056;2023-08-01T04:12:01;99403.20;;;19.20
67353;BMP180;54238;52.278;21.056;2023-08-01T04:14:31;99399.80;;;19.20
67353;BMP180;54238;52.278;21.056;2023-08-01T04:17:00;99397.80;;;19.20
67353;BMP180;54238;52.278;21.056;2023-08-01T04:19:34;99401.00;;;19.22
67353;BMP180;54238;52.278;21.056;2023-08-01T04:22:03;99400.80;;;19.30
67353;BMP180;54238;52.278;21.056;2023-08-01T04:24:33;99396.00;;;19.30
67353;BMP180;54238;52.278;21.056;2023-08-01T04:27:03;99392.20;;;19.30
67353;BMP180;54238;52.278;21.056;2023-08-01T04:29:34;99390.00;;;19.36
67353;BMP180;54238;52.278;21.056;2023-08-01T04:32:02;99387.20;;;19.40
67353;BMP180;54238;52.278;21.056;2023-08-01T04:34:31;99386.40;;;19.40
67353;BMP180;54238;52.278;21.056;2023-08-01T04:37:01;99387.20;;;19.40
67353;BMP180;54238;52.278;21.056;2023-08-01T04:39:30;99382.40;;;19.40
67353;BMP180;54238;52.278;21.056;2023-08-01T04:41:58;99385.80;;;19.42
67353;BMP180;54238;52.278;21.056;2023-08-01T04:44:27;99389.80;;;19.50
67353;BMP180;54238;52.278;21.056;2023-08-01T04:46:59;99387.20;;;19.50
67353;BMP180;54238;52.278;21.056;2023-08-01T04:49:27;99384.60;;;19.50
67353;BMP180;54238;52.278;21.056;2023-08-01T04:52:01;99383.60;;;19.52
67353;BMP180;54238;52.278;21.056;2023-08-01T04:54:30;99376.40;;;19.60
67353;BMP180;54238;52.278;21.056;2023-08-01T04:57:02;99377.60;;;19.60
67353;BMP180;54238;52.278;21.056;2023-08-01T04:59:32;99378.00;;;19.60
67353;BMP180;54238;52.278;21.056;2023-08-01T05:02:01;99373.80;;;19.60
67353;BMP180;54238;52.278;21.056;2023-08-01T05:04:33;99373.60;;;19.70
67353;BMP180;54238;52.278;21.056;2023-08-01T05:07:03;99370.80;;;19.70
67353;BMP180;54238;52.278;21.056;2023-08-01T05:09:37;99370.80;;;19.80
67353;BMP180;54238;52.278;21.056;2023-08-01T05:12:05;99368.60;;;19.80
67353;BMP180;54238;52.278;21.056;2023-08-01T05:14:35;99363.00;;;19.82
67353;BMP180;54238;52.278;21.056;2023-08-01T05:17:12;99359.00;;;19.90
67353;BMP180;54238;52.278;21.056;2023-08-01T05:19:43;99364.40;;;20.00
67353;BMP180;54238;52.278;21.056;2023-08-01T05:22:13;99364.40;;;20.00
67353;BMP180;54238;52.278;21.056;2023-08-01T05:24:44;99358.20;;;20.10
67353;BMP180;54238;52.278;21.056;2023-08-01T05:27:14;99359.00;;;20.22
67353;BMP180;54238;52.278;21.056;2023-08-01T05:29:45;99350.00;;;20.30
67353;BMP180;54238;52.278;21.056;2023-08-01T05:32:15;99350.40;;;20.40
67353;BMP180;54238;52.278;21.056;2023-08-01T05:34:49;99349.40;;;20.50
67353;BMP180;54238;52.278;21.056;2023-08-01T05:37:21;99347.60;;;20.50
67353;BMP180;54238;52.278;21.056;2023-08-01T05:39:51;99348.00;;;20.60
67353;BMP180;54238;52.278;21.056;2023-08-01T05:42:25;99339.40;;;20.60
67353;BMP180;54238;52.278;21.056;2023-08-01T05:44:54;99344.40;;;20.70
67353;BMP180;54238;52.278;21.056;2023-08-01T05:47:24;99343.40;;;20.80
67353;BMP180;54238;52.278;21.056;2023-08-01T05:49:54;99341.80;;;20.90
67353;BMP180;54238;52.278;21.056;2023-08-01T05:52:26;99337.40;;;21.00
67353;BMP180;54238;52.278;21.056;2023-08-01T05:54:58;99340.20;;;21.08
67353;BMP180;54238;52.278;21.056;2023-08-01T05:57:25;99337.40;;;21.10
67353;BMP180;54238;52.278;21.056;2023-08-01T05:59:59;99337.00;;;21.20
67353;BMP180;54238;52.278;21.056;2023-08-01T06:02:26;99336.60;;;21.24
67353;BMP180;54238;52.278;21.056;2023-08-01T06:04:56;99334.60;;;21.30
67353;BMP180;54238;52.278;21.056;2023-08-01T06:07:29;99338.20;;;21.40
67353;BMP180;54238;52.278;21.056;2023-08-01T06:09:56;99339.60;;;21.50
67353;BMP180;54238;52.278;21.056;2023-08-01T06:12:30;99339.80;;;21.50
67353;BMP180;54238;52.278;21.056;2023-08-01T06:14:58;99332.20;;;21.60
67353;BMP180;54238;52.278;21.056;2023-08-01T06:17:27;99326.80;;;21.62
67353;BMP180;54238;52.278;21.056;2023-08-01T06:19:57;99327.40;;;21.70
67353;BMP180;54238;52.278;21.056;2023-08-01T06:22:24;99322.40;;;21.80
67353;BMP180;54238;52.278;21.056;2023-08-01T06:24:51;99317.40;;;21.90
67353;BMP180;54238;52.278;21.056;2023-08-01T06:27:21;99317.00;;;22.00
67353;BMP180;54238;52.278;21.056;2023-08-01T06:29:51;99316.40;;;22.10
67353;BMP180;54238;52.278;21.056;2023-08-01T06:32:23;99309.20;;;22.20
67353;BMP180;54238;52.278;21.056;2023-08-01T06:34:50;99314.60;;;22.20
67353;BMP180;54238;52.278;21.056;2023-08-01T06:37:17;99310.40;;;22.30
67353;BMP180;54238;52.278;21.056;2023-08-01T06:39:47;99304.80;;;22.32
67353;BMP180;54238;52.278;21.056;2023-08-01T06:42:18;99304.20;;;22.40
67353;BMP180;54238;52.278;21.056;2023-08-01T06:44:48;99297.40;;;22.48
67353;BMP180;54238;52.278;21.056;2023-08-01T06:47:15;99311.60;;;22.50
67353;BMP180;54238;52.278;21.056;2023-08-01T06:49:47;99306.40;;;22.50
67353;BMP180;54238;52.278;21.056;2023-08-01T06:52:14;99294.20;;;22.60
67353;BMP180;54238;52.278;21.056;2023-08-01T06:54:43;99304.20;;;22.68
67353;BMP180;54238;52.278;21.056;2023-08-01T06:57:11;99294.00;;;22.70
67353;BMP180;54238;52.278;21.056;2023-08-01T06:59:40;99291.20;;;22.80
67353;BMP180;54238;52.278;21.056;2023-08-01T07:02:07;99286.80;;;22.90
67353;BMP180;54238;52.278;21.056;2023-08-01T07:04:42;99293.40;;;23.00
67353;BMP180;54238;52.278;21.056;2023-08-01T07:07:11;99285.00;;;23.00
67353;BMP180;54238;52.278;21.056;2023-08-01T07:09:41;99283.00;;;23.10
67353;BMP180;54238;52.278;21.056;2023-08-01T07:12:08;99285.00;;;23.20
67353;BMP180;54238;52.278;21.056;2023-08-01T07:14:38;99280.60;;;23.28
67353;BMP180;54238;52.278;21.056;2023-08-01T07:17:05;99281.20;;;23.40
67353;BMP180;54238;52.278;21.056;2023-08-01T07:19:32;99279.20;;;23.50
67353;BMP180;54238;52.278;21.056;2023-08-01T07:21:59;99279.00;;;23.60
67353;BMP180;54238;52.278;21.056;2023-08-01T07:24:28;99278.00;;;23.70
67353;BMP180;54238;52.278;21.056;2023-08-01T07:27:02;99272.20;;;23.80
67353;BMP180;54238;52.278;21.056;2023-08-01T07:29:37;99265.60;;;23.80
67353;BMP180;54238;52.278;21.056;2023-08-01T07:32:07;99269.40;;;23.90
67353;BMP180;54238;52.278;21.056;2023-08-01T07:34:34;99270.00;;;23.98
67353;BMP180;54238;52.278;21.056;2023-08-01T07:37:03;99269.80;;;24.10
67353;BMP180;54238;52.278;21.056;2023-08-01T07:39:33;99262.00;;;24.20
67353;BMP180;54238;52.278;21.056;2023-08-01T07:42:05;99264.00;;;24.30
67353;BMP180;54238;52.278;21.056;2023-08-01T07:44:32;99258.20;;;24.40
67353;BMP180;54238;52.278;21.056;2023-08-01T07:46:59;99254.80;;;24.50
67353;BMP180;54238;52.278;21.056;2023-08-01T07:49:27;99256.60;;;24.50
67353;BMP180;54238;52.278;21.056;2023-08-01T07:51:58;99256.00;;;24.50
67353;BMP180;54238;52.278;21.056;2023-08-01T07:54:28;99254.20;;;24.58
67353;BMP180;54238;52.278;21.056;2023-08-01T07:56:55;99248.00;;;24.60
67353;BMP180;54238;52.278;21.056;2023-08-01T07:59:27;99245.40;;;24.60
67353;BMP180;54238;52.278;21.056;2023-08-01T08:01:56;99244.00;;;24.60
67353;BMP180;54238;52.278;21.056;2023-08-01T08:04:26;99247.60;;;24.60
67353;BMP180;54238;52.278;21.056;2023-08-01T08:06:55;99246.40;;;24.70
67353;BMP180;54238;52.278;21.056;2023-08-01T08:09:29;99241.20;;;24.80
67353;BMP180;54238;52.278;21.056;2023-08-01T08:11:56;99235.20;;;24.82
67353;BMP180;54238;52.278;21.056;2023-08-01T08:14:28;99234.80;;;25.00
67353;BMP180;54238;52.278;21.056;2023-08-01T08:16:55;99229.40;;;25.10
67353;BMP180;54238;52.278;21.056;2023-08-01T08:19:22;99233.20;;;25.20
67353;BMP180;54238;52.278;21.056;2023-08-01T08:21:53;99217.40;;;25.30
67353;BMP180;54238;52.278;21.056;2023-08-01T08:24:23;99219.60;;;25.40
67353;BMP180;54238;52.278;21.056;2023-08-01T08:26:55;99221.20;;;25.50
67353;BMP180;54238;52.278;21.056;2023-08-01T08:29:31;99233.80;;;25.50
67353;BMP180;54238;52.278;21.056;2023-08-01T08:32:01;99228.80;;;25.50
67353;BMP180;54238;52.278;21.056;2023-08-01T08:34:34;99216.00;;;25.50
67353;BMP180;54238;52.278;21.056;2023-08-01T08:37:01;99220.60;;;25.50
67353;BMP180;54238;52.278;21.056;2023-08-01T08:39:29;99220.60;;;25.50
67353;BMP180;54238;52.278;21.056;2023-08-01T08:42:04;99214.60;;;25.40
67353;BMP180;54238;52.278;21.056;2023-08-01T08:44:42;99217.00;;;25.38
67353;BMP180;54238;52.278;21.056;2023-08-01T08:47:17;99212.80;;;25.30
67353;BMP180;54238;52.278;21.056;2023-08-01T08:49:48;99216.40;;;25.22
67353;BMP180;54238;52.278;21.056;2023-08-01T08:52:19;99217.00;;;25.20
67353;BMP180;54238;52.278;21.056;2023-08-01T08:54:49;99217.40;;;25.10
67353;BMP180;54238;52.278;21.056;2023-08-01T08:57:19;99206.60;;;25.06
67353;BMP180;54238;52.278;21.056;2023-08-01T08:59:52;99209.40;;;25.00
67353;BMP180;54238;52.278;21.056;2023-08-01T09:02:20;99203.40;;;25.00
67353;BMP180;54238;52.278;21.056;2023-08-01T09:04:49;99195.00;;;25.00
67353;BMP180;54238;52.278;21.056;2023-08-01T09:07:23;99203.40;;;25.00
67353;BMP180;54238;52.278;21.056;2023-08-01T09:09:52;99193.60;;;25.00
67353;BMP180;54238;52.278;21.056;2023-08-01T09:12:28;99196.60;;;25.00
67353;BMP180;54238;52.278;21.056;2023-08-01T09:14:57;99197.80;;;25.00
67353;BMP180;54238;52.278;21.056;2023-08-01T09:17:26;99191.80;;;24.92
67353;BMP180;54238;52.278;21.056;2023-08-01T09:20:06;99191.00;;;24.90
67353;BMP180;54238;52.278;21.056;2023-08-01T09:22:47;99188.60;;;24.90
67353;BMP180;54238;52.278;21.056;2023-08-01T09:25:19;99185.60;;;24.90
67353;BMP180;54238;52.278;21.056;2023-08-01T09:27:49;99180.40;;;24.90
67353;BMP180;54238;52.278;21.056;2023-08-01T09:30:16;99181.00;;;24.90
67353;BMP180;54238;52.278;21.056;2023-08-01T09:32:57;99176.60;;;24.92
67353;BMP180;54238;52.278;21.056;2023-08-01T09:35:38;99182.80;;;24.94
67353;BMP180;54238;52.278;21.056;2023-08-01T09:38:08;99175.00;;;25.00
67353;BMP180;54238;52.278;21.056;2023-08-01T09:40:38;99170.80;;;25.10
67353;BMP180;54238;52.278;21.056;2023-08-01T09:43:12;99163.80;;;25.16
67353;BMP180;54238;52.278;21.056;2023-08-01T09:45:53;99184.00;;;25.20
67353;BMP180;54238;52.278;21.056;2023-08-01T09:48:27;99178.20;;;25.30
67353;BMP180;54238;52.278;21.056;2023-08-01T09:51:17;99179.40;;;25.30
67353;BMP180;54238;52.278;21.056;2023-08-01T09:53:54;99178.40;;;25.20
67353;BMP180;54238;52.278;21.056;2023-08-01T09:56:25;99164.80;;;25.14
67353;BMP180;54238;52.278;21.056;2023-08-01T09:58:55;99171.60;;;25.10
67353;BMP180;54238;52.278;21.056;2023-08-01T10:01:27;99171.60;;;25.10
67353;BMP180;54238;52.278;21.056;2023-08-01T10:03:58;99172.60;;;25.10
67353;BMP180;54238;52.278;21.056;2023-08-01T10:06:37;99178.20;;;25.10
67353;BMP180;54238;52.278;21.056;2023-08-01T10:09:10;99174.80;;;25.10
67353;BMP180;54238;52.278;21.056;2023-08-01T10:11:38;99172.40;;;25.10
67353;BMP180;54238;52.278;21.056;2023-08-01T10:14:09;99173.60;;;25.06
67353;BMP180;54238;52.278;21.056;2023-08-01T10:16:43;99167.20;;;25.08
67353;BMP180;54238;52.278;21.056;2023-08-01T10:19:13;99172.80;;;25.00
67353;BMP180;54238;52.278;21.056;2023-08-01T10:21:44;99169.40;;;25.00
67353;BMP180;54238;52.278;21.056;2023-08-01T10:24:13;99179.20;;;24.90
67353;BMP180;54238;52.278;21.056;2023-08-01T10:26:44;99174.20;;;24.80
67353;BMP180;54238;52.278;21.056;2023-08-01T10:29:11;99177.20;;;24.70
67353;BMP180;54238;52.278;21.056;2023-08-01T10:31:38;99180.40;;;24.70
67353;BMP180;54238;52.278;21.056;2023-08-01T10:34:13;99191.80;;;24.60
67353;BMP180;54238;52.278;21.056;2023-08-01T10:36:40;99185.40;;;24.40
67353;BMP180;54238;52.278;21.056;2023-08-01T10:39:21;99182.40;;;24.30
67353;BMP180;54238;52.278;21.056;2023-08-01T10:42:03;99185.00;;;24.14
67353;BMP180;54238;52.278;21.056;2023-08-01T10:44:45;99185.20;;;24.00
67353;BMP180;54238;52.278;21.056;2023-08-01T10:47:25;99184.20;;;23.90
67353;BMP180;54238;52.278;21.056;2023-08-01T10:49:56;99190.00;;;23.70
67353;BMP180;54238;52.278;21.056;2023-08-01T10:52:30;99180.60;;;23.60
67353;BMP180;54238;52.278;21.056;2023-08-01T10:55:04;99177.80;;;23.50
67353;BMP180;54238;52.278;21.056;2023-08-01T10:57:37;99172.80;;;23.40
67353;BMP180;54238;52.278;21.056;2023-08-01T11:00:09;99172.40;;;23.30
67353;BMP180;54238;52.278;21.056;2023-08-01T11:02:48;99170.20;;;23.30
67353;BMP180;54238;52.278;21.056;2023-08-01T11:05:17;99171.00;;;23.30
67353;BMP180;54238;52.278;21.056;2023-08-01T11:07:57;99169.20;;;23.30
67353;BMP180;54238;52.278;21.056;2023-08-01T11:10:31;99168.20;;;23.30
67353;BMP180;54238;52.278;21.056;2023-08-01T11:13:02;99167.40;;;23.30
67353;BMP180;54238;52.278;21.056;2023-08-01T11:15:29;99164.80;;;23.30
67353;BMP180;54238;52.278;21.056;2023-08-01T11:17:58;99168.00;;;23.30
67353;BMP180;54238;52.278;21.056;2023-08-01T11:20:25;99158.40;;;23.30
67353;BMP180;54238;52.278;21.056;2023-08-01T11:22:58;99161.80;;;23.30
67353;BMP180;54238;52.278;21.056;2023-08-01T11:25:41;99161.20;;;23.40
67353;BMP180;54238;52.278;21.056;2023-08-01T11:28:16;99160.60;;;23.40
67353;BMP180;54238;52.278;21.056;2023-08-01T11:30:44;99159.40;;;23.40
67353;BMP180;54238;52.278;21.056;2023-08-01T11:33:27;99160.60;;;23.40
67353;BMP180;54238;52.278;21.056;2023-08-01T11:35:56;99157.40;;;23.40
67353;BMP180;54238;52.278;21.056;2023-08-01T11:38:30;99157.20;;;23.50
67353;BMP180;54238;52.278;21.056;2023-08-01T11:41:01;99158.60;;;23.42
67353;BMP180;54238;52.278;21.056;2023-08-01T11:43:43;99160.00;;;23.40
67353;BMP180;54238;52.278;21.056;2023-08-01T11:46:13;99159.60;;;23.50
67353;BMP180;54238;52.278;21.056;2023-08-01T11:48:46;99158.60;;;23.50
67353;BMP180;54238;52.278;21.056;2023-08-01T11:51:19;99156.60;;;23.50
67353;BMP180;54238;52.278;21.056;2023-08-01T11:54:02;99161.20;;;23.50
67353;BMP180;54238;52.278;21.056;2023-08-01T11:56:31;99153.80;;;23.50
67353;BMP180;54238;52.278;21.056;2023-08-01T11:59:11;99150.80;;;23.60
67353;BMP180;54238;52.278;21.056;2023-08-01T12:01:48;99147.20;;;23.60
67353;BMP180;54238;52.278;21.056;2023-08-01T12:04:30;99142.60;;;23.68
67353;BMP180;54238;52.278;21.056;2023-08-01T12:07:00;99144.00;;;23.70
67353;BMP180;54238;52.278;21.056;2023-08-01T12:09:32;99131.20;;;23.64
67353;BMP180;54238;52.278;21.056;2023-08-01T12:12:00;99120.80;;;23.68
67353;BMP180;54238;52.278;21.056;2023-08-01T12:14:38;99126.40;;;23.70
67353;BMP180;54238;52.278;21.056;2023-08-01T12:17:08;99124.60;;;23.70
67353;BMP180;54238;52.278;21.056;2023-08-01T12:19:39;99111.80;;;23.76
67353;BMP180;54238;52.278;21.056;2023-08-01T12:22:07;99105.20;;;23.80
67353;BMP180;54238;52.278;21.056;2023-08-01T12:24:37;99097.60;;;23.80
67353;BMP180;54238;52.278;21.056;2023-08-01T12:27:07;99094.40;;;23.80
67353;BMP180;54238;52.278;21.056;2023-08-01T12:29:38;99096.20;;;23.80
67353;BMP180;54238;52.278;21.056;2023-08-01T12:32:07;99093.40;;;23.80
67353;BMP180;54238;52.278;21.056;2023-08-01T12:34:39;99096.60;;;23.80
67353;BMP180;54238;52.278;21.056;2023-08-01T12:37:06;99095.00;;;23.80
67353;BMP180;54238;52.278;21.056;2023-08-01T12:39:35;99094.20;;;23.88
67353;BMP180;54238;52.278;21.056;2023-08-01T12:42:06;99090.00;;;23.90
67353;BMP180;54238;52.278;21.056;2023-08-01T12:44:33;99085.40;;;23.90
67353;BMP180;54238;52.278;21.056;2023-08-01T12:47:05;99085.80;;;23.90
67353;BMP180;54238;52.278;21.056;2023-08-01T12:49:34;99078.00;;;23.90
67353;BMP180;54238;52.278;21.056;2023-08-01T12:52:06;99074.40;;;23.90
67353;BMP180;54238;52.278;21.056;2023-08-01T12:54:35;99076.80;;;23.94
67353;BMP180;54238;52.278;21.056;2023-08-01T12:57:05;99071.20;;;23.90
67353;BMP180;54238;52.278;21.056;2023-08-01T12:59:37;99074.00;;;24.00
67353;BMP180;54238;52.278;21.056;2023-08-01T13:02:07;99067.20;;;24.04
67353;BMP180;54238;52.278;21.056;2023-08-01T13:04:37;99067.60;;;24.14
67353;BMP180;54238;52.278;21.056;2023-08-01T13:07:07;99064.60;;;24.30
67353;BMP180;54238;52.278;21.056;2023-08-01T13:09:38;99063.60;;;24.42
67353;BMP180;54238;52.278;21.056;2023-08-01T13:12:06;99061.80;;;24.58
67353;BMP180;54238;52.278;21.056;2023-08-01T13:14:38;99058.20;;;24.70
67353;BMP180;54238;52.278;21.056;2023-08-01T13:17:10;99055.60;;;24.70
67353;BMP180;54238;52.278;21.056;2023-08-01T13:19:40;99054.00;;;24.80
67353;BMP180;54238;52.278;21.056;2023-08-01T13:22:10;99055.40;;;24.90
67353;BMP180;54238;52.278;21.056;2023-08-01T13:24:37;99054.60;;;24.90
67353;BMP180;54238;52.278;21.056;2023-08-01T13:27:10;99052.40;;;24.90
67353;BMP180;54238;52.278;21.056;2023-08-01T13:29:40;99048.60;;;24.90
67353;BMP180;54238;52.278;21.056;2023-08-01T13:32:09;99049.00;;;24.88
67353;BMP180;54238;52.278;21.056;2023-08-01T13:34:39;99044.60;;;24.80
67353;BMP180;54238;52.278;21.056;2023-08-01T13:37:06;99048.00;;;24.72
67353;BMP180;54238;52.278;21.056;2023-08-01T13:39:38;99048.80;;;24.60
67353;BMP180;54238;52.278;21.056;2023-08-01T13:42:09;99046.40;;;24.52
67353;BMP180;54238;52.278;21.056;2023-08-01T13:44:40;99042.00;;;24.50
67353;BMP180;54238;52.278;21.056;2023-08-01T13:47:10;99035.60;;;24.50
67353;BMP180;54238;52.278;21.056;2023-08-01T13:49:37;99029.80;;;24.40
67353;BMP180;54238;52.278;21.056;2023-08-01T13:52:05;99028.00;;;24.40
67353;BMP180;54238;52.278;21.056;2023-08-01T13:54:37;99023.00;;;24.48
67353;BMP180;54238;52.278;21.056;2023-08-01T13:57:04;99016.40;;;24.50
67353;BMP180;54238;52.278;21.056;2023-08-01T13:59:33;99008.40;;;24.50
67353;BMP180;54238;52.278;21.056;2023-08-01T14:02:08;99008.20;;;24.48
67353;BMP180;54238;52.278;21.056;2023-08-01T14:04:37;99008.20;;;24.40
67353;BMP180;54238;52.278;21.056;2023-08-01T14:07:07;99007.40;;;24.30
67353;BMP180;54238;52.278;21.056;2023-08-01T14:09:41;99002.40;;;24.20
67353;BMP180;54238;52.278;21.056;2023-08-01T14:12:08;98998.60;;;24.10
67353;BMP180;54238;52.278;21.056;2023-08-01T14:14:42;98997.40;;;24.00
67353;BMP180;54238;52.278;21.056;2023-08-01T14:17:14;98996.60;;;23.90